createdAt,value
2019-04-12T00:00:47.801Z,93.10
2019-04-12T00:01:28.502Z,93.10
2019-04-12T00:02:05.638Z,92.90
2019-04-12T00:02:38.960Z,92.60
2019-04-12T00:03:11.494Z,92.80
2019-04-12T00:03:44.052Z,92.80
2019-04-12T00:04:16.900Z,92.90
2019-04-12T00:04:49.455Z,93.00
2019-04-12T00:05:22.083Z,93.10
2019-04-12T00:05:55.363Z,93.20
2019-04-12T00:06:27.908Z,93.20
2019-04-12T00:07:00.874Z,93.30
2019-04-12T00:07:35.203Z,93.30
2019-04-12T00:08:07.892Z,93.60
2019-04-12T00:08:40.443Z,93.30
2019-04-12T00:09:13.311Z,93.30
2019-04-12T00:09:45.863Z,93.30
2019-04-12T00:10:18.405Z,93.40
2019-04-12T00:10:50.999Z,93.40
2019-04-12T00:11:24.134Z,93.40
2019-04-12T00:11:57.108Z,93.50
2019-04-12T00:12:29.654Z,93.50
2019-04-12T00:13:02.202Z,93.50
2019-04-12T00:13:34.741Z,93.50
2019-04-12T00:14:07.656Z,93.40
2019-04-12T00:14:41.725Z,93.60
2019-04-12T00:15:14.826Z,93.80
2019-04-12T00:15:47.764Z,93.70
2019-04-12T00:16:20.339Z,94.10
2019-04-12T00:16:52.900Z,93.90
2019-04-12T00:17:26.154Z,94.00
2019-04-12T00:18:00.866Z,94.00
2019-04-12T00:18:33.692Z,94.10
2019-04-12T00:19:06.351Z,94.10
2019-04-12T00:19:39.192Z,94.00
2019-04-12T00:20:13.856Z,94.10
2019-04-12T00:20:46.580Z,94.20
2019-04-12T00:21:19.124Z,94.20
2019-04-12T00:21:51.702Z,94.10
2019-04-12T00:22:24.254Z,94.30
2019-04-12T00:22:56.942Z,94.20
2019-04-12T00:23:29.774Z,94.40
2019-04-12T00:24:02.533Z,94.60
2019-04-12T00:24:35.300Z,94.70
2019-04-12T00:25:07.850Z,94.80
2019-04-12T00:25:40.699Z,94.70
2019-04-12T00:26:13.257Z,94.60
2019-04-12T00:26:48.670Z,94.70
2019-04-12T00:27:20.561Z,94.80
2019-04-12T00:27:53.510Z,94.80
2019-04-12T00:28:26.418Z,94.90
2019-04-12T00:28:58.975Z,94.90
2019-04-12T00:29:31.520Z,94.80
2019-04-12T00:30:04.591Z,94.80
2019-04-12T00:30:37.134Z,94.80
2019-04-12T00:31:09.714Z,94.70
2019-04-12T00:31:42.262Z,94.70
2019-04-12T00:32:15.091Z,94.60
2019-04-12T00:32:49.048Z,94.60
2019-04-12T00:33:22.992Z,94.50
2019-04-12T00:33:55.859Z,94.20
2019-04-12T00:34:29.081Z,94.10
2019-04-12T00:35:02.481Z,93.90
2019-04-12T00:35:35.311Z,93.80
2019-04-12T00:36:07.867Z,93.80
2019-04-12T00:36:40.723Z,93.80
2019-04-12T00:37:14.082Z,93.90
2019-04-12T00:37:46.978Z,93.90
2019-04-12T00:38:19.845Z,93.80
2019-04-12T00:38:52.812Z,93.80
2019-04-12T00:39:29.492Z,93.80
2019-04-12T00:40:00.589Z,93.90
2019-04-12T00:40:34.278Z,93.90
2019-04-12T00:41:06.839Z,93.90
2019-04-12T00:41:40.034Z,93.90
2019-04-12T00:42:12.577Z,93.80
2019-04-12T00:42:45.126Z,93.80
2019-04-12T00:43:17.675Z,93.70
2019-04-12T00:43:50.641Z,93.90
2019-04-12T00:44:23.471Z,94.30
2019-04-12T00:44:56.098Z,94.00
2019-04-12T00:45:28.902Z,94.00
2019-04-12T00:46:05.825Z,94.00
2019-04-12T00:46:38.013Z,94.30
2019-04-12T00:47:12.947Z,94.10
2019-04-12T00:47:45.478Z,94.10
2019-04-12T00:48:18.038Z,94.00
2019-04-12T00:49:10.439Z,93.90
2019-04-12T00:49:43.322Z,94.00
2019-04-12T00:50:16.646Z,94.00
2019-04-12T00:50:49.567Z,93.80
2019-04-12T00:51:22.115Z,93.70
2019-04-12T00:51:55.007Z,93.70
2019-04-12T00:52:27.914Z,93.70
2019-04-12T00:53:00.550Z,93.70
2019-04-12T00:53:33.093Z,93.70
2019-04-12T00:54:06.036Z,93.90
2019-04-12T00:54:46.134Z,93.60
2019-04-12T00:55:13.306Z,93.70
2019-04-12T00:55:48.390Z,93.80
2019-04-12T00:56:20.586Z,93.80
2019-04-12T00:56:53.507Z,93.90
2019-04-12T00:57:26.735Z,94.00
2019-04-12T00:57:59.378Z,94.30
2019-04-12T00:58:31.903Z,94.00
2019-04-12T00:59:04.739Z,93.80
2019-04-12T00:59:37.285Z,93.70
2019-04-12T01:00:10.183Z,93.80
2019-04-12T01:01:01.408Z,93.70
2019-04-12T01:01:47.474Z,93.60
2019-04-12T01:02:27.902Z,93.50
2019-04-12T01:03:02.722Z,93.40
2019-04-12T01:03:36.706Z,93.40
2019-04-12T01:04:25.253Z,93.40
2019-04-12T01:05:00.705Z,93.40
2019-04-12T01:05:35.124Z,93.50
2019-04-12T01:06:07.671Z,93.60
2019-04-12T01:06:40.424Z,93.60
2019-04-12T01:07:12.965Z,93.50
2019-04-12T01:08:03.598Z,93.60
2019-04-12T01:08:36.135Z,93.60
2019-04-12T01:09:08.686Z,93.50
2019-04-12T01:09:41.239Z,93.60
2019-04-12T01:10:13.764Z,93.60
2019-04-12T01:10:48.134Z,93.60
2019-04-12T01:11:24.499Z,93.80
2019-04-12T01:11:56.095Z,93.60
2019-04-12T01:12:29.396Z,93.70
2019-04-12T01:13:01.983Z,93.70
2019-04-12T01:13:35.286Z,93.80
2019-04-12T01:14:07.958Z,93.90
2019-04-12T01:14:40.521Z,94.10
2019-04-12T01:15:13.746Z,94.00
2019-04-12T01:15:47.029Z,94.10
2019-04-12T01:16:20.310Z,93.90
2019-04-12T01:16:52.860Z,94.00
2019-04-12T01:17:26.050Z,93.90
2019-04-12T01:18:01.869Z,93.90
2019-04-12T01:18:33.047Z,93.90
2019-04-12T01:19:05.863Z,93.80
2019-04-12T01:19:38.406Z,93.80
2019-04-12T01:20:11.331Z,93.80
2019-04-12T01:20:44.377Z,93.80
2019-04-12T01:21:17.327Z,94.10
2019-04-12T01:21:50.417Z,93.90
2019-04-12T01:22:23.361Z,94.00
2019-04-12T01:22:56.803Z,94.10
2019-04-12T01:23:30.594Z,94.00
2019-04-12T01:24:03.854Z,94.10
2019-04-12T01:24:36.406Z,94.10
2019-04-12T01:25:13.526Z,94.10
2019-04-12T01:25:44.579Z,94.10
2019-04-12T01:26:18.744Z,94.20
2019-04-12T01:26:51.326Z,94.30
2019-04-12T01:27:23.898Z,94.30
2019-04-12T01:27:56.458Z,94.20
2019-04-12T01:28:29.002Z,94.20
2019-04-12T01:29:01.867Z,94.40
2019-04-12T01:29:34.414Z,94.70
2019-04-12T01:30:06.974Z,94.70
2019-04-12T01:30:39.519Z,94.80
2019-04-12T01:31:12.421Z,94.90
2019-04-12T01:31:44.966Z,95.30
2019-04-12T01:32:17.555Z,95.40
2019-04-12T01:32:50.146Z,95.40
2019-04-12T01:33:22.819Z,95.60
2019-04-12T01:33:55.374Z,95.60
2019-04-12T01:34:27.910Z,95.70
2019-04-12T01:35:00.473Z,95.70
2019-04-12T01:35:33.343Z,95.70
2019-04-12T01:36:05.888Z,96.00
2019-04-12T01:36:38.815Z,95.80
2019-04-12T01:37:11.356Z,95.70
2019-04-12T01:37:43.898Z,95.70
2019-04-12T01:38:16.631Z,95.60
2019-04-12T01:38:49.543Z,95.70
2019-04-12T01:39:22.095Z,95.70
2019-04-12T01:39:54.629Z,95.60
2019-04-12T01:40:27.175Z,95.60
2019-04-12T01:40:59.729Z,95.60
2019-04-12T01:41:32.705Z,95.60
2019-04-12T01:42:05.585Z,95.30
2019-04-12T01:42:38.133Z,95.30
2019-04-12T01:43:10.663Z,95.60
2019-04-12T01:43:43.239Z,95.30
2019-04-12T01:44:16.089Z,95.40
2019-04-12T01:44:48.651Z,95.30
2019-04-12T01:45:21.200Z,95.40
2019-04-12T01:45:53.747Z,95.60
2019-04-12T01:46:26.298Z,95.70
2019-04-12T01:46:58.850Z,95.70
2019-04-12T01:47:31.387Z,95.80
2019-04-12T01:48:04.190Z,96.00
2019-04-12T01:48:36.825Z,96.10
2019-04-12T01:49:09.396Z,96.10
2019-04-12T01:49:41.937Z,96.20
2019-04-12T01:50:14.487Z,96.30
2019-04-12T01:50:47.028Z,96.30
2019-04-12T01:51:20.236Z,96.40
2019-04-12T01:51:52.758Z,96.50
2019-04-12T01:52:25.774Z,96.50
2019-04-12T01:52:58.331Z,96.50
2019-04-12T01:53:30.891Z,96.40
2019-04-12T01:54:03.436Z,96.40
2019-04-12T01:54:36.428Z,96.40
2019-04-12T01:55:09.534Z,96.50
2019-04-12T01:55:42.195Z,96.40
2019-04-12T01:56:15.453Z,96.50
2019-04-12T01:56:48.373Z,96.60
2019-04-12T01:57:21.295Z,96.60
2019-04-12T01:57:53.831Z,96.80
2019-04-12T01:58:26.386Z,97.20
2019-04-12T01:58:59.039Z,97.10
2019-04-12T01:59:31.586Z,97.00
2019-04-12T02:00:05.242Z,97.00
2019-04-12T02:00:38.835Z,96.90
2019-04-12T02:01:11.378Z,96.90
2019-04-12T02:01:43.939Z,96.90
2019-04-12T02:02:16.473Z,96.80
2019-04-12T02:02:49.071Z,96.80
2019-04-12T02:03:21.619Z,96.80
2019-04-12T02:03:54.527Z,96.80
2019-04-12T02:04:27.420Z,96.70
2019-04-12T02:04:59.963Z,96.70
2019-04-12T02:05:33.235Z,96.60
2019-04-12T02:06:06.106Z,96.50
2019-04-12T02:06:40.191Z,96.50
2019-04-12T02:07:12.743Z,96.40
2019-04-12T02:07:45.279Z,96.40
2019-04-12T02:08:17.836Z,96.30
2019-04-12T02:08:50.379Z,96.40
2019-04-12T02:09:22.922Z,96.30
2019-04-12T02:09:55.606Z,96.30
2019-04-12T02:10:28.370Z,96.30
2019-04-12T02:11:01.250Z,96.40
2019-04-12T02:11:34.099Z,96.30
2019-04-12T02:12:08.321Z,96.20
2019-04-12T02:12:40.899Z,96.20
2019-04-12T02:13:13.866Z,96.50
2019-04-12T02:13:46.802Z,96.30
2019-04-12T02:14:19.545Z,96.20
2019-04-12T02:14:52.091Z,96.20
2019-04-12T02:15:25.006Z,96.20
2019-04-12T02:15:57.650Z,96.50
2019-04-12T02:16:30.630Z,96.20
2019-04-12T02:17:03.177Z,96.10
2019-04-12T02:17:35.740Z,96.20
2019-04-12T02:18:08.282Z,96.30
2019-04-12T02:18:40.847Z,96.30
2019-04-12T02:19:13.393Z,96.30
2019-04-12T02:19:45.938Z,96.30
2019-04-12T02:20:18.494Z,96.30
2019-04-12T02:20:51.024Z,96.40
2019-04-12T02:21:23.968Z,96.40
2019-04-12T02:21:57.203Z,96.00
2019-04-12T02:22:29.769Z,95.90
2019-04-12T02:23:02.313Z,96.00
2019-04-12T02:23:35.252Z,96.00
2019-04-12T02:24:07.800Z,96.10
2019-04-12T02:24:40.335Z,96.10
2019-04-12T02:25:20.836Z,96.30
2019-04-12T02:25:47.459Z,96.20
2019-04-12T02:26:20.015Z,96.30
2019-04-12T02:26:52.561Z,96.40
2019-04-12T02:27:25.566Z,96.40
2019-04-12T02:27:58.050Z,96.60
2019-04-12T02:28:50.219Z,96.40
2019-04-12T02:29:23.466Z,96.40
2019-04-12T02:29:56.014Z,96.40
2019-04-12T02:30:30.008Z,96.40
2019-04-12T02:31:03.217Z,96.20
2019-04-12T02:31:42.835Z,95.90
2019-04-12T02:32:23.888Z,95.80
2019-04-12T02:32:59.379Z,95.80
2019-04-12T02:33:31.911Z,95.90
2019-04-12T02:34:04.769Z,95.90
2019-04-12T02:34:37.498Z,96.00
2019-04-12T02:35:12.142Z,96.00
2019-04-12T02:35:46.511Z,95.90
2019-04-12T02:36:24.932Z,95.90
2019-04-12T02:36:57.486Z,95.70
2019-04-12T02:37:30.022Z,95.70
2019-04-12T02:38:04.066Z,95.70
2019-04-12T02:38:37.049Z,96.00
2019-04-12T02:39:09.591Z,95.90
2019-04-12T02:39:42.545Z,95.90
2019-04-12T02:40:15.113Z,96.00
2019-04-12T02:40:49.839Z,96.10
2019-04-12T02:41:23.592Z,95.80
2019-04-12T02:41:56.927Z,95.70
2019-04-12T02:42:30.291Z,95.80
2019-04-12T02:43:04.284Z,95.80
2019-04-12T02:43:37.269Z,96.00
2019-04-12T02:44:12.387Z,96.00
2019-04-12T02:44:47.505Z,96.10
2019-04-12T02:45:21.632Z,96.10
2019-04-12T02:45:57.483Z,96.00
2019-04-12T02:46:38.868Z,96.00
2019-04-12T02:47:18.988Z,95.90
2019-04-12T02:47:52.935Z,95.80
2019-04-12T02:48:50.891Z,96.00
2019-04-12T02:49:35.174Z,95.70
2019-04-12T02:50:34.398Z,95.40
2019-04-12T02:51:37.671Z,95.50
2019-04-12T02:52:20.367Z,95.60
2019-04-12T02:53:12.985Z,95.70
2019-04-12T02:53:56.055Z,95.80
2019-04-12T02:54:40.845Z,95.90
2019-04-12T02:55:36.592Z,96.00
2019-04-12T02:56:23.859Z,95.90
2019-04-12T02:57:22.359Z,95.80
2019-04-12T02:58:00.530Z,95.90
2019-04-12T02:58:39.948Z,95.90
2019-04-12T02:59:19.935Z,95.90
2019-04-12T02:59:53.535Z,95.90
2019-04-12T03:00:34.837Z,96.20
2019-04-12T03:01:09.841Z,96.10
2019-04-12T03:01:43.654Z,96.30
2019-04-12T03:02:19.292Z,96.40
2019-04-12T03:02:53.287Z,96.60
2019-04-12T03:03:27.798Z,96.70
2019-04-12T03:04:00.840Z,96.80
2019-04-12T03:04:34.122Z,96.70
2019-04-12T03:05:06.683Z,96.80
2019-04-12T03:05:39.517Z,97.00
2019-04-12T03:06:12.806Z,96.80
2019-04-12T03:06:45.781Z,96.80
2019-04-12T03:07:18.622Z,96.90
2019-04-12T03:07:51.735Z,97.10
2019-04-12T03:08:24.817Z,97.30
2019-04-12T03:08:58.447Z,97.30
2019-04-12T03:09:34.294Z,97.40
2019-04-12T03:10:07.325Z,97.30
2019-04-12T03:10:40.271Z,97.20
2019-04-12T03:11:13.418Z,97.50
2019-04-12T03:11:47.387Z,97.30
2019-04-12T03:12:21.549Z,97.40
2019-04-12T03:12:54.552Z,97.20
2019-04-12T03:13:29.295Z,97.30
2019-04-12T03:14:02.758Z,97.40
2019-04-12T03:14:36.371Z,97.50
2019-04-12T03:15:10.061Z,97.50
2019-04-12T03:15:43.553Z,97.60
2019-04-12T03:16:16.501Z,97.50
2019-04-12T03:16:51.148Z,97.50
2019-04-12T03:17:24.199Z,97.60
2019-04-12T03:17:57.122Z,97.60
2019-04-12T03:18:30.091Z,97.70
2019-04-12T03:19:03.663Z,97.70
2019-04-12T03:19:36.562Z,97.60
2019-04-12T03:20:09.440Z,97.60
2019-04-12T03:20:42.527Z,97.80
2019-04-12T03:21:16.532Z,97.80
2019-04-12T03:21:49.088Z,97.90
2019-04-12T03:22:21.743Z,98.00
2019-04-12T03:22:54.645Z,98.00
2019-04-12T03:23:27.816Z,97.90
2019-04-12T03:24:00.658Z,97.80
2019-04-12T03:24:34.440Z,97.60
2019-04-12T03:25:07.971Z,97.50
2019-04-12T03:25:52.720Z,97.70
2019-04-12T03:26:16.557Z,97.60
2019-04-12T03:26:49.972Z,97.40
2019-04-12T03:27:22.940Z,97.30
2019-04-12T03:27:55.940Z,97.20
2019-04-12T03:28:29.506Z,97.20
2019-04-12T03:29:02.272Z,97.40
2019-04-12T03:29:35.550Z,97.20
2019-04-12T03:30:08.215Z,97.40
2019-04-12T03:30:41.546Z,97.30
2019-04-12T03:31:14.433Z,97.30
2019-04-12T03:31:47.329Z,97.50
2019-04-12T03:32:20.319Z,97.70
2019-04-12T03:32:53.902Z,97.60
2019-04-12T03:33:26.726Z,97.60
2019-04-12T03:34:00.288Z,97.40
2019-04-12T03:34:33.009Z,97.50
2019-04-12T03:35:06.307Z,97.60
2019-04-12T03:35:38.850Z,97.70
2019-04-12T03:36:11.604Z,97.60
2019-04-12T03:36:44.369Z,97.60
2019-04-12T03:37:18.223Z,97.40
2019-04-12T03:37:50.923Z,97.30
2019-04-12T03:38:24.040Z,97.50
2019-04-12T03:38:56.895Z,97.50
2019-04-12T03:39:30.635Z,97.50
2019-04-12T03:40:05.030Z,97.30
2019-04-12T03:40:38.027Z,97.30
2019-04-12T03:41:11.068Z,97.10
2019-04-12T03:41:44.033Z,97.00
2019-04-12T03:42:16.827Z,97.20
2019-04-12T03:42:49.580Z,97.40
2019-04-12T03:43:22.680Z,97.50
2019-04-12T03:43:55.436Z,97.50
2019-04-12T03:44:28.192Z,97.30
2019-04-12T03:45:00.747Z,97.20
2019-04-12T03:45:33.962Z,97.30
2019-04-12T03:46:07.447Z,97.30
2019-04-12T03:46:41.006Z,97.30
2019-04-12T03:47:13.846Z,97.40
2019-04-12T03:47:47.396Z,97.20
2019-04-12T03:48:20.318Z,97.40
2019-04-12T03:48:54.606Z,97.40
2019-04-12T03:49:27.204Z,97.40
2019-04-12T03:50:00.046Z,97.40
2019-04-12T03:50:32.964Z,97.40
2019-04-12T03:51:05.895Z,97.40
2019-04-12T03:51:39.417Z,97.30
2019-04-12T03:52:11.966Z,97.20
2019-04-12T03:52:44.883Z,97.30
2019-04-12T03:53:17.770Z,97.40
2019-04-12T03:53:50.663Z,97.40
2019-04-12T03:54:23.647Z,97.50
2019-04-12T03:54:56.499Z,97.40
2019-04-12T03:55:29.351Z,97.40
2019-04-12T03:56:08.629Z,97.00
2019-04-12T03:56:37.137Z,96.80
2019-04-12T03:57:10.446Z,96.60
2019-04-12T03:57:42.993Z,96.60
2019-04-12T03:58:15.649Z,96.20
2019-04-12T03:58:48.298Z,96.10
2019-04-12T03:59:21.640Z,95.70
2019-04-12T03:59:54.604Z,95.70
2019-04-12T04:00:28.803Z,95.70
2019-04-12T04:01:01.859Z,95.70
2019-04-12T04:01:34.791Z,95.90
2019-04-12T04:02:15.072Z,96.00
2019-04-12T04:02:47.718Z,96.30
2019-04-12T04:03:20.679Z,95.90
2019-04-12T04:03:55.039Z,95.60
2019-04-12T04:04:27.807Z,95.60
2019-04-12T04:05:01.073Z,95.70
2019-04-12T04:05:34.239Z,95.70
2019-04-12T04:06:07.395Z,95.60
2019-04-12T04:06:41.102Z,95.60
2019-04-12T04:07:13.831Z,95.40
2019-04-12T04:07:46.378Z,95.10
2019-04-12T04:08:19.548Z,94.90
2019-04-12T04:08:52.120Z,94.90
2019-04-12T04:09:25.053Z,94.90
2019-04-12T04:09:58.046Z,94.90
2019-04-12T04:10:30.996Z,95.00
2019-04-12T04:11:03.764Z,95.00
2019-04-12T04:11:36.424Z,94.80
2019-04-12T04:12:09.183Z,94.80
2019-04-12T04:12:41.926Z,94.70
2019-04-12T04:13:14.492Z,94.80
2019-04-12T04:13:47.343Z,95.00
2019-04-12T04:14:20.605Z,95.10
2019-04-12T04:14:53.875Z,95.10
2019-04-12T04:15:26.892Z,95.20
2019-04-12T04:16:00.834Z,95.10
2019-04-12T04:16:34.095Z,94.80
2019-04-12T04:17:13.668Z,94.70
2019-04-12T04:18:11.981Z,94.70
2019-04-12T04:18:45.254Z,94.70
2019-04-12T04:19:18.008Z,94.90
2019-04-12T04:20:14.306Z,94.90
2019-04-12T04:20:57.779Z,95.00
2019-04-12T04:21:35.650Z,94.80
2019-04-12T04:22:09.079Z,94.80
2019-04-12T04:22:42.316Z,94.80
2019-04-12T04:23:44.554Z,94.70
2019-04-12T04:24:20.378Z,94.70
2019-04-12T04:24:57.548Z,94.70
2019-04-12T04:25:44.535Z,94.80
2019-04-12T04:26:43.497Z,94.90
2019-04-12T04:27:29.546Z,95.00
2019-04-12T04:28:19.659Z,95.00
2019-04-12T04:29:02.171Z,95.00
2019-04-12T04:30:10.126Z,94.90
2019-04-12T04:30:50.095Z,95.10
2019-04-12T04:31:28.921Z,95.20
2019-04-12T04:32:39.442Z,95.20
2019-04-12T04:33:12.299Z,95.10
2019-04-12T04:33:45.044Z,95.10
2019-04-12T04:34:17.980Z,95.20
2019-04-12T04:34:51.556Z,95.30
2019-04-12T04:35:24.316Z,95.20
2019-04-12T04:35:57.050Z,95.30
2019-04-12T04:36:29.589Z,95.30
2019-04-12T04:37:03.032Z,95.50
2019-04-12T04:37:37.027Z,95.40
2019-04-12T04:38:20.183Z,95.30
2019-04-12T04:38:53.243Z,95.40
2019-04-12T04:39:26.392Z,95.30
2019-04-12T04:39:59.663Z,95.60
2019-04-12T04:40:32.220Z,95.70
2019-04-12T04:41:05.382Z,95.70
2019-04-12T04:41:38.497Z,95.80
2019-04-12T04:42:11.769Z,95.70
2019-04-12T04:42:44.423Z,95.70
2019-04-12T04:43:17.154Z,95.80
2019-04-12T04:43:49.849Z,95.90
2019-04-12T04:44:22.953Z,95.80
2019-04-12T04:44:55.608Z,96.20
2019-04-12T04:45:29.407Z,96.20
2019-04-12T04:46:02.994Z,96.30
2019-04-12T04:46:35.752Z,96.40
2019-04-12T04:47:09.215Z,96.50
2019-04-12T04:47:42.328Z,96.40
2019-04-12T04:48:15.956Z,96.30
2019-04-12T04:48:48.559Z,96.40
2019-04-12T04:49:21.446Z,96.40
2019-04-12T04:49:54.006Z,96.30
2019-04-12T04:50:26.559Z,96.20
2019-04-12T04:50:59.245Z,96.00
2019-04-12T04:51:35.077Z,96.10
2019-04-12T04:52:07.808Z,96.30
2019-04-12T04:52:40.450Z,96.30
2019-04-12T04:53:14.833Z,96.50
2019-04-12T04:53:47.501Z,96.50
2019-04-12T04:54:20.462Z,96.70
2019-04-12T04:54:53.622Z,96.90
2019-04-12T04:55:26.375Z,96.90
2019-04-12T04:55:59.139Z,97.00
2019-04-12T04:56:34.288Z,96.70
2019-04-12T04:57:06.394Z,96.50
2019-04-12T04:57:41.800Z,96.50
2019-04-12T04:58:14.610Z,96.50
2019-04-12T04:58:49.207Z,96.60
2019-04-12T04:59:21.857Z,96.60
2019-04-12T04:59:54.760Z,96.50
2019-04-12T05:00:27.537Z,96.40
2019-04-12T05:01:00.192Z,96.40
2019-04-12T05:01:33.140Z,96.10
2019-04-12T05:02:05.791Z,96.40
2019-04-12T05:02:38.646Z,96.10
2019-04-12T05:03:11.513Z,96.30
2019-04-12T05:03:44.283Z,96.50
2019-04-12T05:04:17.060Z,96.60
2019-04-12T05:04:50.075Z,96.80
2019-04-12T05:05:22.610Z,96.80
2019-04-12T05:05:55.860Z,97.00
2019-04-12T05:06:29.015Z,96.70
2019-04-12T05:07:01.959Z,96.60
2019-04-12T05:07:34.878Z,96.80
2019-04-12T05:08:07.731Z,97.10
2019-04-12T05:08:42.508Z,97.10
2019-04-12T05:09:15.486Z,96.80
2019-04-12T05:09:48.330Z,97.00
2019-04-12T05:10:20.888Z,96.90
2019-04-12T05:10:53.479Z,96.70
2019-04-12T05:11:26.662Z,96.50
2019-04-12T05:11:59.647Z,96.50
2019-04-12T05:12:32.285Z,96.50
2019-04-12T05:13:05.423Z,96.40
2019-04-12T05:13:38.862Z,96.50
2019-04-12T05:14:11.782Z,96.50
2019-04-12T05:14:44.639Z,96.50
2019-04-12T05:15:17.734Z,96.50
2019-04-12T05:15:50.850Z,96.40
2019-04-12T05:16:23.602Z,96.50
2019-04-12T05:16:56.978Z,96.50
2019-04-12T05:17:29.731Z,96.80
2019-04-12T05:18:02.495Z,97.10
2019-04-12T05:18:35.246Z,96.90
2019-04-12T05:19:08.138Z,96.90
2019-04-12T05:19:40.692Z,96.80
2019-04-12T05:20:13.551Z,96.70
2019-04-12T05:20:51.254Z,96.90
2019-04-12T05:21:24.085Z,96.80
2019-04-12T05:21:57.842Z,96.60
2019-04-12T05:22:30.883Z,96.70
2019-04-12T05:23:05.379Z,96.70
2019-04-12T05:23:38.036Z,96.80
2019-04-12T05:24:13.226Z,96.80
2019-04-12T05:24:45.770Z,96.80
2019-04-12T05:25:20.388Z,96.70
2019-04-12T05:25:54.191Z,96.50
2019-04-12T05:26:27.718Z,96.10
2019-04-12T05:27:01.228Z,96.10
2019-04-12T05:27:42.420Z,96.40
2019-04-12T05:28:16.995Z,96.60
2019-04-12T05:28:52.859Z,96.80
2019-04-12T05:29:25.919Z,96.90
2019-04-12T05:29:58.474Z,96.80
2019-04-12T05:30:32.283Z,97.00
2019-04-12T05:31:04.820Z,97.00
2019-04-12T05:31:39.609Z,96.80
2019-04-12T05:32:13.903Z,96.30
2019-04-12T05:32:47.779Z,96.40
2019-04-12T05:33:21.197Z,96.30
2019-04-12T05:33:53.888Z,96.30
2019-04-12T05:34:26.928Z,96.30
2019-04-12T05:34:59.951Z,96.50
2019-04-12T05:35:35.494Z,96.70
2019-04-12T05:36:09.818Z,96.10
2019-04-12T05:36:43.803Z,96.20
2019-04-12T05:37:16.711Z,96.50
2019-04-12T05:37:49.711Z,96.60
2019-04-12T05:38:22.657Z,96.70
2019-04-12T05:38:58.348Z,96.80
2019-04-12T05:39:33.212Z,97.20
2019-04-12T05:40:06.386Z,96.80
2019-04-12T05:40:39.038Z,96.50
2019-04-12T05:41:11.756Z,96.60
2019-04-12T05:41:45.359Z,96.50
2019-04-12T05:42:18.979Z,96.70
2019-04-12T05:42:53.551Z,96.60
2019-04-12T05:43:28.487Z,96.60
2019-04-12T05:44:01.858Z,96.70
2019-04-12T05:44:35.125Z,96.60
2019-04-12T05:45:11.756Z,96.70
2019-04-12T05:45:49.327Z,96.60
2019-04-12T05:46:46.395Z,96.70
2019-04-12T05:47:37.850Z,96.80
2019-04-12T05:48:16.058Z,96.90
2019-04-12T05:49:00.522Z,97.10
2019-04-12T05:49:43.811Z,97.00
2019-04-12T05:50:20.399Z,97.10
2019-04-12T05:50:55.008Z,96.90
2019-04-12T05:51:28.547Z,96.80
2019-04-12T05:52:01.635Z,96.80
2019-04-12T05:52:35.496Z,96.80
2019-04-12T05:53:08.373Z,96.70
2019-04-12T05:53:41.610Z,96.60
2019-04-12T05:54:18.401Z,96.00
2019-04-12T05:54:51.662Z,96.00
2019-04-12T05:55:25.162Z,96.10
2019-04-12T05:55:57.741Z,96.10
2019-04-12T05:56:30.282Z,95.90
2019-04-12T05:57:03.235Z,95.70
2019-04-12T05:57:36.465Z,95.50
2019-04-12T05:58:23.694Z,95.40
2019-04-12T05:59:20.811Z,95.50
2019-04-12T05:59:53.366Z,95.60
2019-04-12T06:00:31.917Z,95.40
2019-04-12T06:01:29.075Z,95.60
2019-04-12T06:02:11.087Z,95.40
2019-04-12T06:02:43.854Z,95.20
2019-04-12T06:03:17.035Z,95.40
2019-04-12T06:03:49.873Z,95.40
2019-04-12T06:04:26.195Z,95.70
2019-04-12T06:04:59.934Z,95.90
2019-04-12T06:05:33.404Z,95.90
2019-04-12T06:06:05.950Z,96.00
2019-04-12T06:06:40.410Z,95.70
2019-04-12T06:07:13.367Z,95.60
2019-04-12T06:07:48.257Z,95.50
2019-04-12T06:08:22.322Z,95.70
2019-04-12T06:08:55.787Z,95.80
2019-04-12T06:09:29.072Z,95.70
2019-04-12T06:10:01.602Z,95.70
2019-04-12T06:10:34.163Z,95.70
2019-04-12T06:11:06.915Z,95.70
2019-04-12T06:11:40.761Z,95.80
2019-04-12T06:12:16.295Z,96.00
2019-04-12T06:12:50.266Z,96.00
2019-04-12T06:13:24.244Z,95.40
2019-04-12T06:13:57.750Z,95.30
2019-04-12T06:14:32.230Z,95.80
2019-04-12T06:15:09.551Z,96.10
2019-04-12T06:15:44.215Z,96.10
2019-04-12T06:16:17.386Z,96.10
2019-04-12T06:17:00.893Z,96.40
2019-04-12T06:17:27.975Z,96.40
2019-04-12T06:18:02.645Z,96.40
2019-04-12T06:18:36.557Z,96.40
2019-04-12T06:19:11.615Z,96.00
2019-04-12T06:19:46.410Z,95.90
2019-04-12T06:20:46.604Z,95.80
2019-04-12T06:21:42.450Z,95.80
2019-04-12T06:22:18.366Z,95.50
2019-04-12T06:22:51.431Z,95.90
2019-04-12T06:23:50.319Z,95.70
2019-04-12T06:24:24.207Z,96.10
2019-04-12T06:24:59.840Z,96.10
2019-04-12T06:25:37.254Z,96.30
2019-04-12T06:26:33.867Z,96.30
2019-04-12T06:27:14.743Z,96.30
2019-04-12T06:27:52.735Z,96.30
2019-04-12T06:28:27.342Z,96.80
2019-04-12T06:29:00.721Z,96.50
2019-04-12T06:29:35.195Z,96.40
2019-04-12T06:30:11.636Z,96.40
2019-04-12T06:30:47.535Z,96.50
2019-04-12T06:31:22.328Z,96.50
2019-04-12T06:31:54.975Z,96.60
2019-04-12T06:32:27.537Z,96.70
2019-04-12T06:33:00.222Z,96.50
2019-04-12T06:33:36.844Z,96.10
2019-04-12T06:34:09.775Z,96.00
2019-04-12T06:34:42.330Z,96.20
2019-04-12T06:35:15.828Z,96.20
2019-04-12T06:35:48.398Z,96.00
2019-04-12T06:36:22.378Z,95.70
2019-04-12T06:36:54.922Z,95.80
2019-04-12T06:37:30.669Z,96.10
2019-04-12T06:38:05.202Z,96.10
2019-04-12T06:38:40.412Z,96.40
2019-04-12T06:39:18.283Z,96.30
2019-04-12T06:39:51.334Z,96.30
2019-04-12T06:40:23.935Z,96.40
2019-04-12T06:40:56.475Z,96.50
2019-04-12T06:41:29.483Z,96.50
2019-04-12T06:42:02.400Z,96.40
2019-04-12T06:42:34.974Z,96.40
2019-04-12T06:43:07.814Z,96.30
2019-04-12T06:43:40.363Z,96.20
2019-04-12T06:44:13.411Z,95.90
2019-04-12T06:44:45.959Z,95.60
2019-04-12T06:45:19.055Z,95.30
2019-04-12T06:45:52.021Z,95.30
2019-04-12T06:46:24.909Z,95.50
2019-04-12T06:46:57.766Z,95.70
2019-04-12T06:47:30.686Z,96.00
2019-04-12T06:48:03.690Z,96.10
2019-04-12T06:48:36.290Z,96.10
2019-04-12T06:49:09.570Z,96.10
2019-04-12T06:49:42.115Z,96.00
2019-04-12T06:50:21.119Z,96.00
2019-04-12T06:50:57.935Z,95.80
2019-04-12T06:51:30.771Z,95.90
2019-04-12T06:52:03.331Z,96.20
2019-04-12T06:52:37.134Z,96.00
2019-04-12T06:53:10.112Z,95.70
2019-04-12T06:53:42.647Z,95.60
2019-04-12T06:54:15.207Z,95.20
2019-04-12T06:54:47.949Z,95.00
2019-04-12T06:55:22.266Z,95.20
2019-04-12T06:56:05.631Z,95.20
2019-04-12T06:56:42.082Z,95.10
2019-04-12T06:57:23.738Z,94.90
2019-04-12T06:57:58.258Z,95.30
2019-04-12T06:58:31.195Z,95.60
2019-04-12T06:59:03.753Z,95.40
2019-04-12T06:59:36.975Z,95.50
2019-04-12T07:00:28.175Z,95.40
2019-04-12T07:01:08.253Z,95.30
2019-04-12T07:01:52.350Z,95.20
2019-04-12T07:02:25.758Z,95.20
2019-04-12T07:03:08.632Z,95.00
2019-04-12T07:03:56.742Z,95.10
2019-04-12T07:04:45.060Z,95.20
2019-04-12T07:05:17.607Z,95.30
2019-04-12T07:05:50.163Z,95.30
2019-04-12T07:06:23.090Z,95.40
2019-04-12T07:07:00.279Z,95.40
2019-04-12T07:07:32.823Z,95.50
2019-04-12T07:08:05.472Z,95.40
2019-04-12T07:08:38.051Z,95.40
2019-04-12T07:09:10.620Z,95.70
2019-04-12T07:09:43.158Z,95.70
2019-04-12T07:10:15.722Z,95.70
2019-04-12T07:10:48.618Z,95.70
2019-04-12T07:11:21.217Z,95.30
2019-04-12T07:11:53.786Z,95.60
2019-04-12T07:12:26.340Z,95.40
2019-04-12T07:12:58.897Z,95.40
2019-04-12T07:13:31.458Z,95.50
2019-04-12T07:14:04.154Z,95.20
2019-04-12T07:14:36.715Z,94.90
2019-04-12T07:15:09.638Z,94.80
2019-04-12T07:15:42.207Z,94.70
2019-04-12T07:16:15.119Z,94.80
2019-04-12T07:16:47.704Z,94.70
2019-04-12T07:17:20.518Z,94.70
2019-04-12T07:17:54.245Z,94.40
2019-04-12T07:18:26.918Z,94.30
2019-04-12T07:18:59.510Z,94.40
2019-04-12T07:19:32.819Z,94.40
2019-04-12T07:20:05.847Z,93.80
2019-04-12T07:20:38.378Z,93.80
2019-04-12T07:21:11.327Z,93.90
2019-04-12T07:21:43.888Z,94.10
2019-04-12T07:22:16.434Z,94.10
2019-04-12T07:22:49.026Z,93.60
2019-04-12T07:23:21.579Z,93.70
2019-04-12T07:23:54.442Z,93.50
2019-04-12T07:24:26.998Z,93.30
2019-04-12T07:24:59.551Z,93.10
2019-04-12T07:25:32.115Z,92.90